createdAt,value
2018-09-25T00:01:01.381Z,6.40
2018-09-25T00:03:35.306Z,6.40
2018-09-25T00:06:09.240Z,6.40
2018-09-25T00:08:43.147Z,6.40
2018-09-25T00:11:16.952Z,6.40
2018-09-25T00:13:50.727Z,6.30
2018-09-25T00:16:24.475Z,6.30
2018-09-25T00:18:58.381Z,6.30
2018-09-25T00:21:32.060Z,6.30
2018-09-25T00:24:05.882Z,6.30
2018-09-25T00:26:39.806Z,6.30
2018-09-25T00:29:13.666Z,6.30
2018-09-25T00:31:47.401Z,6.30
2018-09-25T00:34:21.224Z,6.20
2018-09-25T00:36:54.993Z,6.20
2018-09-25T00:39:28.976Z,6.20
2018-09-25T00:42:02.769Z,6.20
2018-09-25T00:44:36.706Z,6.20
2018-09-25T00:47:10.767Z,6.10
2018-09-25T00:49:44.611Z,6.10
2018-09-25T00:52:18.602Z,6.10
2018-09-25T00:54:52.524Z,6.00
2018-09-25T00:57:26.288Z,6.00
2018-09-25T01:00:00.247Z,6.00
2018-09-25T01:02:34.045Z,6.00
2018-09-25T01:05:07.772Z,6.00
2018-09-25T01:07:41.724Z,6.00
2018-09-25T01:10:15.657Z,6.00
2018-09-25T01:12:49.451Z,6.00
2018-09-25T01:15:23.185Z,6.00
2018-09-25T01:17:57.191Z,6.00
2018-09-25T01:20:31.112Z,6.00
2018-09-25T01:23:05.031Z,6.00
2018-09-25T01:25:38.995Z,5.90
2018-09-25T01:28:12.917Z,5.90
2018-09-25T01:30:46.880Z,5.90
2018-09-25T01:33:20.626Z,6.00
2018-09-25T01:35:54.379Z,6.20
2018-09-25T01:38:28.343Z,6.30
2018-09-25T01:41:02.348Z,6.30
2018-09-25T01:43:36.114Z,6.20
2018-09-25T01:46:10.002Z,6.20
2018-09-25T01:48:43.885Z,6.10
2018-09-25T01:51:17.842Z,6.10
2018-09-25T01:53:51.610Z,6.00
2018-09-25T01:56:25.388Z,6.10
2018-09-25T01:58:59.662Z,6.10
2018-09-25T02:01:33.622Z,6.20
2018-09-25T02:04:07.377Z,6.10
2018-09-25T02:06:41.309Z,6.10
2018-09-25T02:09:15.224Z,6.00
2018-09-25T02:11:48.965Z,6.00
2018-09-25T02:14:22.688Z,5.90
2018-09-25T02:16:56.487Z,5.90
2018-09-25T02:19:30.446Z,5.90
2018-09-25T02:22:04.455Z,5.90
2018-09-25T02:24:38.424Z,5.90
2018-09-25T02:27:12.481Z,5.90
2018-09-25T02:29:46.366Z,5.90
2018-09-25T02:32:20.279Z,5.80
2018-09-25T02:34:54.761Z,5.80
2018-09-25T02:37:31.893Z,5.70
2018-09-25T02:40:05.785Z,5.70
2018-09-25T02:42:39.703Z,5.70
2018-09-25T02:45:13.542Z,5.60
2018-09-25T02:47:47.349Z,5.60
2018-09-25T02:50:21.236Z,5.60
2018-09-25T02:52:56.255Z,5.60
2018-09-25T02:55:29.989Z,5.60
2018-09-25T02:58:03.965Z,5.60
2018-09-25T03:00:38.767Z,5.60
2018-09-25T03:03:13.283Z,5.50
2018-09-25T03:05:47.037Z,5.50
2018-09-25T03:08:20.756Z,5.50
2018-09-25T03:10:54.629Z,5.50
2018-09-25T03:13:28.538Z,5.50
2018-09-25T03:16:02.298Z,5.60
2018-09-25T03:18:36.117Z,5.60
2018-09-25T03:21:10.075Z,5.70
2018-09-25T03:23:43.735Z,5.70
2018-09-25T03:26:17.545Z,5.70
2018-09-25T03:28:51.476Z,5.60
2018-09-25T03:31:25.498Z,5.60
2018-09-25T03:33:59.328Z,5.50
2018-09-25T03:36:33.283Z,5.50
2018-09-25T03:39:07.160Z,5.50
2018-09-25T03:41:40.952Z,5.50
2018-09-25T03:44:14.842Z,5.50
2018-09-25T03:46:48.609Z,5.50
2018-09-25T03:49:22.520Z,5.50
2018-09-25T03:51:56.300Z,5.50
2018-09-25T03:54:30.139Z,5.40
2018-09-25T03:57:04.144Z,5.40
2018-09-25T03:59:38.157Z,5.40
2018-09-25T04:02:12.181Z,5.40
2018-09-25T04:04:45.938Z,5.40
2018-09-25T04:07:19.876Z,5.40
2018-09-25T04:09:53.826Z,5.40
2018-09-25T04:12:27.529Z,5.40
2018-09-25T04:15:01.461Z,5.40
2018-09-25T04:17:35.232Z,5.30
2018-09-25T04:20:09.074Z,5.30
2018-09-25T04:22:42.821Z,5.30
2018-09-25T04:25:16.608Z,5.30
2018-09-25T04:27:50.549Z,5.30
2018-09-25T04:30:24.534Z,5.30
2018-09-25T04:32:58.347Z,5.30
2018-09-25T04:35:32.228Z,5.30
2018-09-25T04:38:06.075Z,5.30
2018-09-25T04:40:39.814Z,5.20
2018-09-25T04:43:13.704Z,5.20
2018-09-25T04:45:47.484Z,5.20
2018-09-25T04:48:21.450Z,5.20
2018-09-25T04:50:55.319Z,5.10
2018-09-25T04:53:29.162Z,5.10
2018-09-25T04:56:03.068Z,5.10
2018-09-25T04:58:36.794Z,5.10
2018-09-25T05:01:10.894Z,5.20
2018-09-25T05:03:44.706Z,5.10
2018-09-25T05:06:18.598Z,5.10
2018-09-25T05:08:52.389Z,5.10
2018-09-25T05:11:26.178Z,5.20
2018-09-25T05:14:00.142Z,5.20
2018-09-25T05:16:34.010Z,5.20
2018-09-25T05:19:07.919Z,5.10
2018-09-25T05:21:41.823Z,5.20
2018-09-25T05:24:15.791Z,5.20
2018-09-25T05:26:49.487Z,5.20
2018-09-25T05:29:23.218Z,5.30
2018-09-25T05:31:57.101Z,5.50
2018-09-25T05:34:31.105Z,5.50
2018-09-25T05:37:05.062Z,5.50
2018-09-25T05:39:38.853Z,5.50
2018-09-25T05:42:13.028Z,5.50
2018-09-25T05:44:46.827Z,5.50
2018-09-25T05:47:20.800Z,5.60
2018-09-25T05:49:54.567Z,5.60
2018-09-25T05:52:28.521Z,5.70
2018-09-25T05:55:02.425Z,5.90
2018-09-25T05:57:36.376Z,6.10
2018-09-25T06:00:10.599Z,6.30
2018-09-25T06:02:44.557Z,6.40
2018-09-25T06:05:18.331Z,6.50
2018-09-25T06:07:52.475Z,6.70
2018-09-25T06:10:26.393Z,6.80
2018-09-25T06:13:00.138Z,6.90
2018-09-25T06:15:34.138Z,7.00
2018-09-25T06:18:07.881Z,7.10
2018-09-25T06:20:41.814Z,7.20
2018-09-25T06:23:15.568Z,7.20
2018-09-25T06:25:49.474Z,7.20
2018-09-25T06:28:23.326Z,7.20
2018-09-25T06:30:57.249Z,7.30
2018-09-25T06:33:31.248Z,7.30
2018-09-25T06:36:05.248Z,7.30
2018-09-25T06:38:39.183Z,7.40
2018-09-25T06:41:13.172Z,7.50
2018-09-25T06:43:46.957Z,7.60
2018-09-25T06:46:21.002Z,7.80
2018-09-25T06:48:54.901Z,8.00
2018-09-25T06:51:28.807Z,8.20
2018-09-25T06:54:02.658Z,8.40
2018-09-25T06:56:36.504Z,8.70
2018-09-25T06:59:10.455Z,8.90
2018-09-25T07:01:44.431Z,9.20
2018-09-25T07:04:18.195Z,9.50
2018-09-25T07:06:52.061Z,9.70
2018-09-25T07:09:25.759Z,9.80
2018-09-25T07:11:59.886Z,10.00
2018-09-25T07:14:33.954Z,10.10
2018-09-25T07:17:07.894Z,10.40
2018-09-25T07:19:41.779Z,10.50
2018-09-25T07:22:15.523Z,10.70
2018-09-25T07:24:49.381Z,10.80
2018-09-25T07:27:23.112Z,10.80
2018-09-25T07:29:57.103Z,10.90
2018-09-25T07:32:31.000Z,10.90
2018-09-25T07:35:04.843Z,10.90
2018-09-25T07:37:38.739Z,10.90
2018-09-25T07:40:12.726Z,10.90
2018-09-25T07:42:46.677Z,10.80
2018-09-25T07:45:20.480Z,10.80
2018-09-25T07:47:54.202Z,10.70
2018-09-25T07:50:28.058Z,10.70
2018-09-25T07:53:01.978Z,10.80
2018-09-25T07:55:35.971Z,10.80
2018-09-25T07:58:09.763Z,10.80
2018-09-25T08:00:43.492Z,10.80
2018-09-25T08:03:17.327Z,10.90
2018-09-25T08:05:51.097Z,11.00
2018-09-25T08:08:24.830Z,11.20
2018-09-25T08:10:58.507Z,11.30
2018-09-25T08:13:32.176Z,11.40
2018-09-25T08:16:05.855Z,11.50
2018-09-25T08:18:39.692Z,11.60
2018-09-25T08:21:13.526Z,11.60
2018-09-25T08:23:47.373Z,11.70
2018-09-25T08:26:21.282Z,11.70
2018-09-25T08:28:55.140Z,11.70
2018-09-25T08:31:28.822Z,11.80
2018-09-25T08:34:02.495Z,11.90
2018-09-25T08:36:36.312Z,11.90
2018-09-25T08:39:13.527Z,11.90
2018-09-25T08:41:47.613Z,12.00
2018-09-25T08:44:21.297Z,12.10
2018-09-25T08:46:55.267Z,12.30
2018-09-25T08:49:28.975Z,12.40
2018-09-25T08:52:02.845Z,12.50
2018-09-25T08:54:36.769Z,12.60
2018-09-25T08:57:10.619Z,12.60
2018-09-25T08:59:44.472Z,12.70
2018-09-25T09:02:18.239Z,12.80
2018-09-25T09:04:51.987Z,12.90
2018-09-25T09:07:25.752Z,13.10
2018-09-25T09:09:59.488Z,13.40
2018-09-25T09:12:33.201Z,13.90
2018-09-25T09:15:07.038Z,14.90
2018-09-25T09:17:40.825Z,15.60
2018-09-25T09:20:14.690Z,16.10
2018-09-25T09:22:48.508Z,18.10
2018-09-25T09:25:22.237Z,21.00
2018-09-25T09:27:56.090Z,22.80
2018-09-25T09:30:29.786Z,24.30
2018-09-25T09:33:03.621Z,25.20
2018-09-25T09:35:37.444Z,25.90
2018-09-25T09:38:11.350Z,26.30
2018-09-25T09:40:45.099Z,26.50
2018-09-25T09:43:18.958Z,27.60
2018-09-25T09:45:52.874Z,28.00
2018-09-25T09:48:26.504Z,28.10
2018-09-25T09:51:00.352Z,28.30
2018-09-25T09:53:34.192Z,28.10
2018-09-25T09:56:08.400Z,27.80
2018-09-25T09:58:42.106Z,28.10
2018-09-25T10:01:15.945Z,28.20
2018-09-25T10:03:49.687Z,28.20
2018-09-25T10:06:23.490Z,28.50
2018-09-25T10:08:57.357Z,28.70
2018-09-25T10:11:31.096Z,29.60
2018-09-25T10:14:04.895Z,30.10
2018-09-25T10:16:38.813Z,30.70
2018-09-25T10:19:12.806Z,30.40
2018-09-25T10:21:46.755Z,29.90
2018-09-25T10:24:20.614Z,29.60
2018-09-25T10:26:54.443Z,30.00
2018-09-25T10:29:28.249Z,30.50
2018-09-25T10:32:02.065Z,31.00
2018-09-25T10:34:35.917Z,30.90
2018-09-25T10:37:09.919Z,30.80
2018-09-25T10:39:43.701Z,31.50
2018-09-25T10:42:17.654Z,31.40
2018-09-25T10:44:51.525Z,31.50
2018-09-25T10:47:25.381Z,31.90
2018-09-25T10:49:59.110Z,32.30
2018-09-25T10:52:32.893Z,33.00
2018-09-25T10:55:06.696Z,33.20
2018-09-25T10:57:40.587Z,33.10
2018-09-25T11:00:14.333Z,32.80
2018-09-25T11:02:48.295Z,32.60
2018-09-25T11:05:21.826Z,33.10
2018-09-25T11:07:55.525Z,33.80
2018-09-25T11:10:29.211Z,33.80
2018-09-25T11:13:02.912Z,33.40
2018-09-25T11:15:36.741Z,33.10
2018-09-25T11:18:10.626Z,33.30
2018-09-25T11:20:44.320Z,33.20
2018-09-25T11:23:18.066Z,33.40
2018-09-25T11:25:51.953Z,33.30
2018-09-25T11:28:25.758Z,33.70
2018-09-25T11:30:59.577Z,33.70
2018-09-25T11:33:33.500Z,33.80
2018-09-25T11:36:07.279Z,33.90
2018-09-25T11:38:41.140Z,33.80
2018-09-25T11:41:15.037Z,34.10
2018-09-25T11:43:48.826Z,34.00
2018-09-25T11:46:22.624Z,32.80
2018-09-25T11:48:56.553Z,32.00
2018-09-25T11:51:30.355Z,32.40
2018-09-25T11:54:04.178Z,32.50
2018-09-25T11:56:37.825Z,32.80
2018-09-25T11:59:11.702Z,32.90
2018-09-25T12:01:45.608Z,33.40
2018-09-25T12:04:19.581Z,33.80
2018-09-25T12:06:53.294Z,31.40
2018-09-25T12:09:27.208Z,27.60
2018-09-25T12:12:01.076Z,25.30
2018-09-25T12:14:35.003Z,25.60
2018-09-25T12:17:08.869Z,27.10
2018-09-25T12:19:42.846Z,28.90
2018-09-25T12:22:16.630Z,30.30
2018-09-25T12:24:50.567Z,31.60
2018-09-25T12:27:24.359Z,32.30
2018-09-25T12:29:58.249Z,33.10
2018-09-25T12:32:32.187Z,33.20
2018-09-25T12:35:06.168Z,32.50
2018-09-25T12:37:39.862Z,32.80
2018-09-25T12:40:13.717Z,33.20
2018-09-25T12:42:47.516Z,33.10
2018-09-25T12:45:21.284Z,33.30
2018-09-25T12:47:55.179Z,33.60
2018-09-25T12:50:29.093Z,34.10
2018-09-25T12:53:02.911Z,34.40
2018-09-25T12:55:36.689Z,34.00
2018-09-25T12:58:10.414Z,33.90
2018-09-25T13:00:44.236Z,34.10
2018-09-25T13:03:18.102Z,33.90
2018-09-25T13:05:51.850Z,34.20
2018-09-25T13:08:25.636Z,33.10
2018-09-25T13:10:59.537Z,32.70
2018-09-25T13:13:33.474Z,33.60
2018-09-25T13:16:07.270Z,33.60
2018-09-25T13:18:40.995Z,33.40
2018-09-25T13:21:14.722Z,32.80
2018-09-25T13:23:48.380Z,32.70
2018-09-25T13:26:22.128Z,33.00
2018-09-25T13:28:55.808Z,33.40
2018-09-25T13:31:29.596Z,33.60
2018-09-25T13:34:03.492Z,34.30
2018-09-25T13:36:37.348Z,34.80
2018-09-25T13:39:13.502Z,34.40
2018-09-25T13:41:47.612Z,32.80
2018-09-25T13:44:21.322Z,30.50
2018-09-25T13:46:55.116Z,28.40
2018-09-25T13:49:28.882Z,29.50
2018-09-25T13:52:02.816Z,30.50
2018-09-25T13:54:36.532Z,31.40
2018-09-25T13:57:10.459Z,32.40
2018-09-25T13:59:44.395Z,32.50
2018-09-25T14:02:18.104Z,32.60
2018-09-25T14:04:52.452Z,33.00
2018-09-25T14:07:26.434Z,32.80
2018-09-25T14:10:00.312Z,32.30
2018-09-25T14:12:34.125Z,32.40
2018-09-25T14:15:07.883Z,32.40
2018-09-25T14:17:41.700Z,31.70
2018-09-25T14:20:15.377Z,31.80
2018-09-25T14:22:49.250Z,31.70
2018-09-25T14:25:22.966Z,30.20
2018-09-25T14:27:56.791Z,30.30
2018-09-25T14:30:30.649Z,30.40
2018-09-25T14:33:04.575Z,30.80
2018-09-25T14:35:38.476Z,30.60
2018-09-25T14:38:12.361Z,30.50
2018-09-25T14:40:46.061Z,29.70
2018-09-25T14:43:19.827Z,29.40
2018-09-25T14:45:53.517Z,29.10
2018-09-25T14:48:27.348Z,28.70
2018-09-25T14:51:01.160Z,28.70
2018-09-25T14:53:35.072Z,29.00
2018-09-25T14:56:08.901Z,28.30
2018-09-25T14:58:42.831Z,26.70
2018-09-25T15:01:16.529Z,26.10
2018-09-25T15:03:50.507Z,26.30
2018-09-25T15:06:24.451Z,27.10
2018-09-25T15:08:58.229Z,27.70
2018-09-25T15:11:32.024Z,27.90
2018-09-25T15:14:05.794Z,28.20
2018-09-25T15:16:39.673Z,28.40
2018-09-25T15:19:13.636Z,28.20
2018-09-25T15:21:47.656Z,27.70
2018-09-25T15:24:21.267Z,27.50
2018-09-25T15:26:54.986Z,27.80
2018-09-25T15:29:28.733Z,28.10
2018-09-25T15:32:02.328Z,28.10
2018-09-25T15:34:36.237Z,27.60
2018-09-25T15:37:10.066Z,27.50
2018-09-25T15:39:43.857Z,27.10
2018-09-25T15:42:17.652Z,26.50
2018-09-25T15:44:51.355Z,26.40
2018-09-25T15:47:25.196Z,26.10
2018-09-25T15:49:59.067Z,25.60
2018-09-25T15:52:32.991Z,24.10
2018-09-25T15:55:06.795Z,22.60
2018-09-25T15:57:40.751Z,21.90
2018-09-25T16:00:14.571Z,21.20
2018-09-25T16:02:51.824Z,20.60
2018-09-25T16:08:11.297Z,19.40
2018-09-25T16:10:47.576Z,18.90
2018-09-25T16:13:21.545Z,18.60
2018-09-25T16:15:55.467Z,18.30
2018-09-25T16:18:29.374Z,18.00
2018-09-25T16:21:03.157Z,17.80
2018-09-25T16:23:36.911Z,17.60
2018-09-25T16:26:10.762Z,17.40
2018-09-25T16:28:44.460Z,17.20
2018-09-25T16:31:18.263Z,17.10
2018-09-25T16:33:51.996Z,17.00
2018-09-25T16:36:25.699Z,16.90
2018-09-25T16:38:59.520Z,16.80
2018-09-25T16:41:33.267Z,16.70
2018-09-25T16:44:07.080Z,16.60
2018-09-25T16:46:41.036Z,16.50
2018-09-25T16:49:14.927Z,16.50
2018-09-25T16:51:48.601Z,16.40
2018-09-25T16:54:22.327Z,16.10
2018-09-25T16:56:56.069Z,15.90
2018-09-25T16:59:30.023Z,15.90
2018-09-25T17:02:03.849Z,15.90
2018-09-25T17:04:37.636Z,15.90
2018-09-25T17:07:11.554Z,15.80
2018-09-25T17:09:45.417Z,15.70
2018-09-25T17:12:19.323Z,15.60
2018-09-25T17:14:53.126Z,15.50
2018-09-25T17:17:26.917Z,15.40
2018-09-25T17:20:00.842Z,15.30
2018-09-25T17:22:34.734Z,15.10
2018-09-25T17:25:08.690Z,15.00
2018-09-25T17:27:42.466Z,14.90
2018-09-25T17:30:16.266Z,14.70
2018-09-25T17:32:49.996Z,14.50
2018-09-25T17:35:23.788Z,14.30
2018-09-25T17:37:57.618Z,14.10
2018-09-25T17:40:31.438Z,13.90
2018-09-25T17:43:05.190Z,13.70
2018-09-25T17:45:39.155Z,13.60
2018-09-25T17:48:19.821Z,13.40
2018-09-25T17:50:53.560Z,13.30
2018-09-25T17:53:27.377Z,13.10
2018-09-25T17:56:01.176Z,13.00
2018-09-25T17:58:35.008Z,12.80
2018-09-25T18:01:08.820Z,12.80
2018-09-25T18:03:42.503Z,12.70
2018-09-25T18:06:16.438Z,12.60
2018-09-25T18:08:50.199Z,12.60
2018-09-25T18:11:23.979Z,12.40
2018-09-25T18:13:57.771Z,12.40
2018-09-25T18:16:31.549Z,12.20
2018-09-25T18:19:05.348Z,12.20
2018-09-25T18:21:39.128Z,12.10
2018-09-25T18:24:13.058Z,11.90
2018-09-25T18:26:46.837Z,11.80
2018-09-25T18:29:20.629Z,11.70
2018-09-25T18:31:54.463Z,11.70
2018-09-25T18:34:28.214Z,11.60
2018-09-25T18:37:01.839Z,11.60
2018-09-25T18:39:35.553Z,11.60
2018-09-25T18:42:09.485Z,11.50
2018-09-25T18:44:43.235Z,11.40
2018-09-25T18:47:17.208Z,11.40
2018-09-25T18:49:50.942Z,11.40
2018-09-25T18:52:24.804Z,11.30
2018-09-25T18:54:58.606Z,11.30
2018-09-25T18:57:32.376Z,11.20
2018-09-25T19:00:06.215Z,11.10
2018-09-25T19:02:40.133Z,11.10
2018-09-25T19:05:13.929Z,11.00
2018-09-25T19:07:47.695Z,10.90
2018-09-25T19:10:21.670Z,10.80
2018-09-25T19:12:55.684Z,10.80
2018-09-25T19:15:29.500Z,10.80
2018-09-25T19:18:03.282Z,10.80
2018-09-25T19:20:37.229Z,10.80
2018-09-25T19:23:11.703Z,10.70
2018-09-25T19:25:45.625Z,10.70
2018-09-25T19:28:19.954Z,10.60
2018-09-25T19:30:53.823Z,10.60
2018-09-25T19:33:27.569Z,10.60
2018-09-25T19:36:01.385Z,10.50
2018-09-25T19:38:35.057Z,10.50
2018-09-25T19:41:08.959Z,10.40
2018-09-25T19:43:42.830Z,10.30
2018-09-25T19:46:16.747Z,10.30
2018-09-25T19:48:50.497Z,10.30
2018-09-25T19:51:24.237Z,10.20
2018-09-25T19:53:58.003Z,10.20
2018-09-25T19:56:31.795Z,10.20
2018-09-25T19:59:05.524Z,10.10
2018-09-25T20:01:39.488Z,10.10
2018-09-25T20:04:13.523Z,10.00
2018-09-25T20:06:47.123Z,9.90
2018-09-25T20:09:20.830Z,9.90
2018-09-25T20:11:54.814Z,9.90
2018-09-25T20:14:28.677Z,9.80
2018-09-25T20:17:02.507Z,9.80
2018-09-25T20:19:36.451Z,9.70
2018-09-25T20:22:12.407Z,9.70
2018-09-25T20:24:46.551Z,9.60
2018-09-25T20:27:20.424Z,9.60
2018-09-25T20:29:54.286Z,9.60
2018-09-25T20:32:28.210Z,9.50
2018-09-25T20:35:02.125Z,9.50
2018-09-25T20:37:35.892Z,9.50
2018-09-25T20:40:10.059Z,9.40
2018-09-25T20:42:43.992Z,9.40
2018-09-25T20:45:17.723Z,9.40
2018-09-25T20:47:51.370Z,9.30
2018-09-25T20:50:25.096Z,9.30
2018-09-25T20:52:58.828Z,9.30
2018-09-25T20:55:32.653Z,9.20
2018-09-25T20:58:06.387Z,9.20
2018-09-25T21:00:40.006Z,9.20
2018-09-25T21:03:13.733Z,9.10
2018-09-25T21:05:47.580Z,9.10
2018-09-25T21:08:21.277Z,9.00
2018-09-25T21:10:55.155Z,9.00
2018-09-25T21:13:29.107Z,9.00
2018-09-25T21:16:02.992Z,9.00
2018-09-25T21:18:36.767Z,9.00
2018-09-25T21:21:10.738Z,8.90
2018-09-25T21:23:44.349Z,8.90
2018-09-25T21:26:18.217Z,8.90
2018-09-25T21:28:51.996Z,8.90
2018-09-25T21:31:25.733Z,8.80
2018-09-25T21:33:59.489Z,8.80
2018-09-25T21:36:33.133Z,8.80
2018-09-25T21:39:07.093Z,8.80
2018-09-25T21:41:40.917Z,8.70
2018-09-25T21:44:14.607Z,8.70
2018-09-25T21:46:48.461Z,8.70
2018-09-25T21:49:22.363Z,8.60
2018-09-25T21:51:56.168Z,8.60
2018-09-25T21:54:29.982Z,8.60
2018-09-25T21:57:03.809Z,8.60
2018-09-25T21:59:37.442Z,8.50
2018-09-25T22:02:11.206Z,8.50
2018-09-25T22:04:45.016Z,8.50
2018-09-25T22:07:18.784Z,8.50
2018-09-25T22:09:52.493Z,8.50
2018-09-25T22:12:26.257Z,8.40
2018-09-25T22:15:00.194Z,8.40
2018-09-25T22:17:33.856Z,8.40
2018-09-25T22:20:07.788Z,8.40
2018-09-25T22:22:41.532Z,8.40
2018-09-25T22:25:15.375Z,8.40
2018-09-25T22:27:49.218Z,8.30
2018-09-25T22:30:22.936Z,8.30
2018-09-25T22:32:56.779Z,8.30
2018-09-25T22:35:30.534Z,8.30
2018-09-25T22:38:04.373Z,8.30
2018-09-25T22:40:38.139Z,8.30
2018-09-25T22:43:12.014Z,8.30
2018-09-25T22:45:45.952Z,8.30
2018-09-25T22:48:19.920Z,8.30
2018-09-25T22:50:53.719Z,8.30
2018-09-25T22:53:27.371Z,8.30
2018-09-25T22:56:01.095Z,8.30
2018-09-25T22:58:35.114Z,8.30
2018-09-25T23:01:08.842Z,8.30
2018-09-25T23:03:42.675Z,8.30
2018-09-25T23:06:16.463Z,8.30
2018-09-25T23:08:50.179Z,8.20
2018-09-25T23:11:23.932Z,8.20
2018-09-25T23:13:57.767Z,8.20
2018-09-25T23:16:31.513Z,8.20
2018-09-25T23:19:05.327Z,8.10
2018-09-25T23:21:39.017Z,8.10
2018-09-25T23:24:12.823Z,8.10
2018-09-25T23:26:46.511Z,8.10
2018-09-25T23:29:20.365Z,8.10
2018-09-25T23:31:54.146Z,8.10
2018-09-25T23:34:27.979Z,8.00
2018-09-25T23:37:01.828Z,8.00
2018-09-25T23:39:34.474Z,8.00
2018-09-25T23:43:08.892Z,8.00
2018-09-25T23:45:50.749Z,8.00
2018-09-25T23:48:26.360Z,7.90
2018-09-25T23:51:04.198Z,7.90
2018-09-25T23:53:36.777Z,7.90
2018-09-25T23:56:11.622Z,7.90
2018-09-25T23:58:46.438Z,7.80
